Terminal Aerodrome Forecast
Issued by NWS

Home | Current Version | Previous Version | Text Only | Print | Product List | Glossary On
Versions: 1 2 3 4 5 6 7 8 9 10 11 12 13 14 15 16 17 18 19 20 21
000
FTUS43 KDTX 140328 AAA
TAFPTK
TAF AMD
KPTK 140328Z 1403/1424 03012KT 2SM -SHSN OVC012
     FM140700 35011KT P6SM OVC012
     FM141200 32009KT P6SM BKN011
     FM141800 30008KT P6SM SCT010 BKN150=

USA.gov is the U.S. government's official web portal to all federal, state and local government web resources and services.